Time;durP1;ratioP1;P1;durP2;ratioP2;P2;SDS_P1;SDS_P2;PMS_P1;PMS_P2;Temp;Humidity;BMP_temperature;BMP_pressure;BME280_temperature;BME280_humidity;BME280_pressure;Samples;Min_cycle;Max_cycle;Signal;HPM_P1;HPM_P2
2023/01/05 00:00:12;;;;;;;4.10;1.30;;;;;;;9.91;100.00;97969.34;15287119;19;20019;-57
2023/01/05 00:05:36;;;;;;;4.15;1.15;;;;;;;9.89;100.00;97963.28;15289863;19;20015;-56
2023/01/05 00:22:33;;;;;;;4.47;1.30;;;;;;;10.03;100.00;97955.38;15289208;19;20394;-57
2023/01/05 00:27:59;;;;;;;3.70;1.20;;;;;;;10.01;100.00;97959.25;15280510;19;20021;-57
2023/01/05 00:33:26;;;;;;;4.30;1.25;;;;;;;10.12;100.00;97952.66;15291088;19;20070;-57
2023/01/05 00:38:51;;;;;;;3.85;1.20;;;;;;;10.16;100.00;97946.81;15287548;19;20026;-54
2023/01/05 00:44:15;;;;;;;3.92;1.33;;;;;;;10.25;100.00;97955.69;15290659;19;20372;-56
2023/01/05 00:49:43;;;;;;;5.68;1.35;;;;;;;10.30;100.00;97930.94;15279263;19;20078;-55
2023/01/05 00:55:08;;;;;;;3.83;1.30;;;;;;;10.34;100.00;97953.81;15283374;19;20018;-53
2023/01/05 01:00:40;;;;;;;3.35;1.20;;;;;;;10.39;100.00;97939.88;15277544;19;20081;-52
2023/01/05 01:06:08;;;;;;;5.43;1.50;;;;;;;10.63;100.00;97933.59;15283588;19;20022;-54
2023/01/05 01:11:33;;;;;;;3.55;1.35;;;;;;;10.63;100.00;97963.22;15286133;19;20010;-54
2023/01/05 01:16:58;;;;;;;2.90;1.10;;;;;;;10.70;100.00;97958.81;15285342;19;20077;-54
2023/01/05 01:22:26;;;;;;;4.35;1.20;;;;;;;10.60;100.00;97972.47;15279904;19;20061;-56
2023/01/05 01:27:51;;;;;;;3.97;1.13;;;;;;;10.68;100.00;98009.31;15280931;19;20014;-53
2023/01/05 01:33:17;;;;;;;4.80;1.33;;;;;;;10.71;100.00;97952.41;15286567;19;20070;-51
2023/01/05 01:38:44;;;;;;;3.58;1.17;;;;;;;10.67;100.00;97952.94;15284435;19;20061;-57
2023/01/05 01:44:10;;;;;;;3.65;1.23;;;;;;;10.72;100.00;97954.09;15284415;19;20014;-53
2023/01/05 01:49:34;;;;;;;5.20;1.50;;;;;;;10.69;100.00;97946.34;15282977;19;20018;-56
2023/01/05 01:55:04;;;;;;;4.93;1.38;;;;;;;10.64;100.00;97943.34;15279060;19;20013;-51
2023/01/05 02:00:35;;;;;;;3.33;1.23;;;;;;;10.53;100.00;97963.41;15276585;19;20021;-51
2023/01/05 02:06:01;;;;;;;3.80;1.43;;;;;;;10.50;100.00;97949.47;15282709;19;20024;-54
2023/01/05 02:11:39;;;;;;;4.90;1.50;;;;;;;10.54;100.00;97926.53;15282978;19;20025;-52
2023/01/05 02:17:17;;;;;;;5.15;1.40;;;;;;;10.50;100.00;97950.28;15280596;19;20502;-52
2023/01/05 02:23:15;;;;;;;4.50;1.30;;;;;;;10.40;100.00;97936.16;15276607;19;20018;-56
2023/01/05 02:29:01;;;;;;;4.05;1.30;;;;;;;10.35;100.00;97927.75;15277515;19;20018;-54
2023/01/05 02:34:37;;;;;;;4.18;1.40;;;;;;;10.31;100.00;97916.47;15273636;19;20007;-52
2023/01/05 02:40:07;;;;;;;6.13;1.60;;;;;;;10.35;100.00;97917.81;15275933;19;20010;-53
2023/01/05 02:45:33;;;;;;;3.77;1.30;;;;;;;10.26;100.00;97913.47;15277414;19;20018;-53
2023/01/05 02:51:06;;;;;;;6.38;1.50;;;;;;;10.38;100.00;97949.81;15276077;19;20038;-50
2023/01/05 02:56:36;;;;;;;6.43;1.58;;;;;;;10.31;100.00;97948.78;15272752;19;20423;-54
2023/01/05 03:02:10;;;;;;;4.60;1.40;;;;;;;10.40;100.00;97926.25;15275300;19;20679;-53
2023/01/05 03:07:42;;;;;;;4.55;1.40;;;;;;;10.43;100.00;97919.69;15270615;19;20018;-55
2023/01/05 03:35:51;;;;;;;5.88;1.80;;;;;;;10.24;100.00;97969.31;15277027;19;20399;-52
2023/01/05 03:41:22;;;;;;;4.05;1.20;;;;;;;10.11;100.00;97975.25;15268066;19;20017;-53
2023/01/05 03:46:48;;;;;;;3.92;1.60;;;;;;;9.95;100.00;97971.53;15274593;19;20396;-52
2023/01/05 03:52:12;;;;;;;5.40;1.30;;;;;;;9.92;100.00;98012.22;15273642;19;20028;-55
2023/01/05 03:57:40;;;;;;;4.97;1.25;;;;;;;9.80;100.00;98008.19;15273642;19;20021;-54
2023/01/05 04:03:07;;;;;;;5.80;1.60;;;;;;;9.68;100.00;97975.41;15267766;19;20356;-54
2023/01/05 04:08:33;;;;;;;6.07;1.60;;;;;;;9.70;100.00;97974.22;15284305;19;20018;-52
2023/01/05 04:14:00;;;;;;;5.10;1.75;;;;;;;9.50;100.00;97976.38;15292369;19;20018;-51
2023/01/05 04:19:26;;;;;;;6.93;1.85;;;;;;;9.35;100.00;97970.81;15285344;19;20146;-53
2023/01/05 04:24:51;;;;;;;4.70;1.50;;;;;;;9.33;100.00;97982.72;15288809;19;20018;-53
2023/01/05 04:30:20;;;;;;;5.03;1.73;;;;;;;9.22;100.00;97986.56;15285851;19;20018;-53
2023/01/05 04:35:47;;;;;;;4.80;1.80;;;;;;;9.19;100.00;97992.25;15284970;19;20014;-52
2023/01/05 04:41:14;;;;;;;6.95;2.25;;;;;;;9.43;100.00;98017.50;15279978;19;20014;-51
2023/01/05 04:46:41;;;;;;;6.65;1.70;;;;;;;9.35;100.00;98004.91;15286778;19;20014;-53
2023/01/05 04:52:07;;;;;;;5.63;1.73;;;;;;;9.25;100.00;97992.44;15287371;19;20542;-51
2023/01/05 04:57:32;;;;;;;4.65;1.67;;;;;;;9.19;100.00;98008.38;15285517;19;20089;-52
2023/01/05 05:03:02;;;;;;;5.72;1.85;;;;;;;9.14;100.00;98022.31;15288471;19;20018;-57
2023/01/05 05:08:27;;;;;;;6.80;2.00;;;;;;;9.07;100.00;98043.59;15281758;19;20018;-54
2023/01/05 05:13:53;;;;;;;6.07;1.83;;;;;;;9.10;100.00;98035.22;15283955;19;20006;-55
2023/01/05 05:19:20;;;;;;;5.40;1.70;;;;;;;9.10;100.00;98037.91;15274283;19;20025;-57
2023/01/05 05:24:46;;;;;;;6.97;1.60;;;;;;;8.98;100.00;98043.75;15277638;19;20384;-55
2023/01/05 05:30:12;;;;;;;6.97;1.60;;;;;;;8.74;100.00;98040.75;15279571;19;20291;-56
2023/01/05 05:35:41;;;;;;;6.43;1.65;;;;;;;8.66;100.00;98053.28;15288205;19;20826;-58
2023/01/05 05:41:06;;;;;;;4.75;1.30;;;;;;;8.68;100.00;98057.53;15280953;19;20082;-55
2023/01/05 05:46:30;;;;;;;5.72;1.50;;;;;;;8.60;100.00;98058.31;15285709;19;20020;-55
2023/01/05 05:51:57;;;;;;;5.53;1.60;;;;;;;8.60;100.00;98063.66;15289308;19;20049;-56
2023/01/05 05:57:22;;;;;;;5.47;1.80;;;;;;;8.52;100.00;98063.63;15287006;19;20526;-58
2023/01/05 06:02:46;;;;;;;4.65;1.25;;;;;;;8.56;100.00;98069.50;15287499;19;20018;-55
2023/01/05 06:08:14;;;;;;;3.72;1.25;;;;;;;8.60;100.00;98095.03;15284046;19;20074;-52
2023/01/05 06:13:39;;;;;;;5.07;1.80;;;;;;;8.63;100.00;98110.84;15284924;19;20006;-54
2023/01/05 06:19:04;;;;;;;4.93;1.60;;;;;;;8.62;100.00;98114.53;15277234;19;20554;-55
2023/01/05 06:24:31;;;;;;;5.35;1.65;;;;;;;8.63;100.00;98119.75;15284808;19;20014;-51
2023/01/05 06:29:58;;;;;;;7.00;1.80;;;;;;;8.60;100.00;98120.06;15281705;19;20018;-54
2023/01/05 06:35:22;;;;;;;6.15;1.70;;;;;;;8.64;100.00;98120.59;15282714;19;20037;-53
2023/01/05 06:40:50;;;;;;;5.40;1.73;;;;;;;8.67;100.00;98132.84;15279247;19;20014;-58
2023/01/05 06:46:14;;;;;;;5.03;1.55;;;;;;;8.63;100.00;98143.94;15280358;19;20031;-55
2023/01/05 06:51:39;;;;;;;5.30;1.70;;;;;;;8.67;100.00;98162.38;15275211;19;20570;-51
2023/01/05 06:57:06;;;;;;;5.47;1.75;;;;;;;8.70;100.00;98175.50;15280866;19;20027;-51
2023/01/05 07:02:38;;;;;;;6.32;1.83;;;;;;;8.74;100.00;98171.53;15276120;19;20033;-56
2023/01/05 07:08:02;;;;;;;7.20;1.87;;;;;;;8.81;100.00;98169.88;15278342;19;20357;-56
2023/01/05 07:13:30;;;;;;;4.50;1.55;;;;;;;8.78;100.00;98172.88;15275813;19;20031;-54
2023/01/05 07:18:54;;;;;;;9.43;1.80;;;;;;;8.85;100.00;98182.03;15278407;19;20018;-51
2023/01/05 07:24:19;;;;;;;6.35;1.75;;;;;;;8.81;100.00;98204.81;15273047;19;20018;-53
2023/01/05 07:29:46;;;;;;;6.18;1.50;;;;;;;8.91;100.00;98202.88;15273406;19;20783;-51
2023/01/05 07:35:12;;;;;;;4.50;1.60;;;;;;;8.96;100.00;98198.88;15277189;19;20027;-54
2023/01/05 07:40:44;;;;;;;3.72;1.40;;;;;;;9.00;100.00;98214.53;15279816;19;20025;-56
2023/01/05 07:46:11;;;;;;;4.28;1.40;;;;;;;9.01;100.00;98235.03;15287875;19;20022;-54
2023/01/05 07:51:36;;;;;;;4.43;1.50;;;;;;;9.05;100.00;98249.00;15292546;19;20629;-53
2023/01/05 07:57:00;;;;;;;8.10;1.60;;;;;;;8.94;100.00;98247.38;15289725;19;20022;-54
2023/01/05 08:02:35;;;;;;;5.15;1.77;;;;;;;8.81;100.00;98249.66;15287239;19;20023;-56
2023/01/05 08:08:00;;;;;;;4.85;1.67;;;;;;;8.80;100.00;98251.47;14781846;19;10001148;-52
2023/01/05 08:19:04;;;;;;;5.15;1.52;;;;;;;8.59;100.00;98284.84;15284969;19;20010;-54
2023/01/05 08:24:29;;;;;;;5.70;1.55;;;;;;;8.51;100.00;98290.16;15295402;19;20400;-56
2023/01/05 08:29:53;;;;;;;6.55;1.60;;;;;;;8.46;100.00;98292.41;15286732;19;20479;-55
2023/01/05 08:35:21;;;;;;;6.05;1.70;;;;;;;8.43;100.00;98298.06;15287464;19;20018;-55
2023/01/05 08:40:45;;;;;;;5.25;1.67;;;;;;;8.31;100.00;98310.84;15285370;19;20024;-52
2023/01/05 08:46:10;;;;;;;4.93;1.52;;;;;;;8.32;100.00;98307.19;15288340;19;20497;-56
2023/01/05 08:51:37;;;;;;;5.43;1.60;;;;;;;8.43;100.00;98308.78;15286923;19;20457;-52
2023/01/05 08:57:02;;;;;;;4.45;1.52;;;;;;;8.53;100.00;98312.28;15290484;19;20024;-54
2023/01/05 09:02:33;;;;;;;5.60;1.42;;;;;;;8.61;100.00;98312.41;15276537;19;20350;-52
2023/01/05 09:08:00;;;;;;;4.70;1.73;;;;;;;8.77;100.00;98318.94;15286085;19;20014;-52
2023/01/05 09:13:25;;;;;;;5.90;1.80;;;;;;;8.86;100.00;98304.59;15290727;19;20015;-56
2023/01/05 09:18:50;;;;;;;6.30;1.48;;;;;;;8.97;100.00;98314.25;15287534;19;20440;-56
2023/01/05 09:24:19;;;;;;;3.70;1.15;;;;;;;9.17;100.00;98359.81;15283128;19;20078;-53
2023/01/05 09:29:43;;;;;;;4.28;1.30;;;;;;;9.18;100.00;98330.06;15283751;19;20014;-49
2023/01/05 09:35:08;;;;;;;4.03;1.25;;;;;;;9.24;100.00;98323.22;15279439;19;20022;-55
2023/01/05 09:40:42;;;;;;;5.07;1.23;;;;;;;9.23;100.00;98338.50;15283100;19;20097;-51
2023/01/05 09:46:07;;;;;;;3.63;1.27;;;;;;;9.34;100.00;98334.75;15284595;19;20022;-52
2023/01/05 09:51:32;;;;;;;4.32;1.50;;;;;;;9.37;100.00;98350.56;15284949;19;20014;-55
2023/01/05 09:57:01;;;;;;;4.63;1.30;;;;;;;9.35;100.00;98347.19;15284096;19;20041;-52
2023/01/05 10:02:40;;;;;;;3.70;1.20;;;;;;;9.31;100.00;98350.34;15283230;19;20022;-52
2023/01/05 10:08:08;;;;;;;3.80;1.40;;;;;;;9.41;100.00;98345.72;15285061;19;20022;-49
2023/01/05 10:13:42;;;;;;;5.28;1.60;;;;;;;9.40;100.00;98362.84;15288886;19;20078;-52
2023/01/05 10:19:13;;;;;;;4.43;1.35;;;;;;;9.34;100.00;98358.94;15284074;19;20717;-50
2023/01/05 10:24:51;;;;;;;3.50;1.17;;;;;;;9.51;100.00;98359.91;15285690;19;20082;-54
2023/01/05 10:30:24;;;;;;;4.57;1.20;;;;;;;9.48;100.00;98352.16;15279207;19;20086;-54
2023/01/05 10:36:03;;;;;;;5.35;1.42;;;;;;;9.52;100.00;98369.69;15281998;19;20086;-54
2023/01/05 10:41:39;;;;;;;4.88;1.10;;;;;;;9.56;100.00;98368.38;15283311;19;20034;-55
2023/01/05 10:47:07;;;;;;;2.47;1.10;;;;;;;9.58;100.00;98378.13;15284602;19;20026;-56
2023/01/05 10:52:32;;;;;;;3.85;1.20;;;;;;;9.62;100.00;98392.94;15283309;19;20018;-55
2023/01/05 10:57:57;;;;;;;2.42;0.93;;;;;;;9.62;100.00;98384.88;15283696;19;20014;-54
2023/01/05 11:03:29;;;;;;;3.42;1.10;;;;;;;9.64;100.00;98386.41;15279888;19;20021;-54
2023/01/05 11:09:27;;;;;;;1.85;0.95;;;;;;;9.69;100.00;98386.78;15275276;19;20025;-53
2023/01/05 11:14:54;;;;;;;2.70;1.00;;;;;;;9.73;100.00;98392.69;15281371;19;20021;-54
2023/01/05 11:20:26;;;;;;;2.33;1.00;;;;;;;9.69;100.00;98412.84;15288984;19;20029;-53
2023/01/05 11:25:52;;;;;;;2.20;0.90;;;;;;;9.71;100.00;98416.22;15293095;19;20014;-55
2023/01/05 11:31:16;;;;;;;2.08;1.00;;;;;;;9.67;100.00;98404.09;15291910;19;20014;-54
2023/01/05 11:36:45;;;;;;;2.45;0.88;;;;;;;9.65;100.00;98432.97;15293442;19;20014;-54
2023/01/05 11:42:19;;;;;;;2.10;0.90;;;;;;;9.49;100.00;98434.53;15282680;19;20019;-55
2023/01/05 11:47:48;;;;;;;2.35;0.90;;;;;;;9.49;100.00;98417.56;15288727;19;20033;-54
2023/01/05 11:53:32;;;;;;;2.60;0.80;;;;;;;9.57;100.00;98406.84;15292157;19;20023;-58
2023/01/05 11:58:59;;;;;;;3.67;1.10;;;;;;;9.62;100.00;98414.47;15284261;19;20077;-51
2023/01/05 12:04:59;;;;;;;2.63;0.98;;;;;;;9.72;100.00;98434.03;15284108;19;20014;-50
2023/01/05 12:10:49;;;;;;;2.67;1.00;;;;;;;9.80;100.00;98426.06;15284327;19;20018;-51
2023/01/05 12:16:29;;;;;;;2.40;0.88;;;;;;;9.81;100.00;98427.75;15283860;19;20014;-55
2023/01/05 12:22:07;;;;;;;2.30;0.90;;;;;;;9.86;100.00;98436.19;15286588;19;20022;-51
2023/01/05 12:27:57;;;;;;;2.78;0.90;;;;;;;9.75;100.00;98441.81;15284478;19;20466;-51
2023/01/05 12:33:51;;;;;;;2.03;0.73;;;;;;;9.73;100.00;98451.03;15289946;19;20581;-56
2023/01/05 12:39:58;;;;;;;2.13;0.98;;;;;;;9.65;100.00;98465.25;15281087;19;20026;-57
2023/01/05 12:45:56;;;;;;;3.78;0.90;;;;;;;9.55;100.00;98476.94;15285320;19;20094;-55
2023/01/05 12:51:35;;;;;;;2.38;0.90;;;;;;;9.48;100.00;98477.72;15320699;19;20019;-94
2023/01/05 12:57:09;;;;;;;2.35;0.80;;;;;;;9.48;100.00;98483.91;15315387;19;20047;-83
2023/01/05 13:02:55;;;;;;;2.10;0.70;;;;;;;9.35;100.00;98476.25;15306992;19;20017;-84
2023/01/05 13:08:25;;;;;;;2.40;0.93;;;;;;;9.37;100.00;98478.75;15303238;19;20015;-87
2023/01/05 13:13:56;;;;;;;1.23;0.67;;;;;;;9.23;100.00;98501.66;15303508;19;20018;-87
2023/01/05 13:19:30;;;;;;;2.60;0.90;;;;;;;9.18;100.00;98494.03;15293277;19;20018;-84
2023/01/05 13:24:59;;;;;;;2.22;0.80;;;;;;;9.19;100.00;98502.94;15305750;19;20031;-84
2023/01/05 13:30:27;;;;;;;2.97;0.90;;;;;;;9.17;100.00;98494.19;15293028;19;20093;-85
2023/01/05 13:36:07;;;;;;;2.58;0.80;;;;;;;9.12;100.00;98497.31;15296395;19;20015;-82
2023/01/05 13:42:04;;;;;;;2.05;0.90;;;;;;;9.17;100.00;98500.41;15288470;19;20419;-84
2023/01/05 13:48:04;;;;;;;2.53;0.90;;;;;;;9.17;100.00;98511.16;15293407;19;20354;-83
2023/01/05 13:53:37;;;;;;;2.45;0.68;;;;;;;9.09;100.00;98525.34;15296601;19;20082;-83
2023/01/05 13:59:08;;;;;;;2.60;0.98;;;;;;;9.07;100.00;98513.06;15290247;19;20031;-83
2023/01/05 14:04:54;;;;;;;2.72;1.05;;;;;;;9.09;100.00;98529.88;15289600;19;20014;-84
2023/01/05 14:10:33;;;;;;;2.38;1.00;;;;;;;9.12;100.00;98540.31;15290265;19;20023;-82
2023/01/05 14:27:26;;;;;;;2.75;0.90;;;;;;;8.89;100.00;98578.31;15315347;19;20454;-86
2023/01/05 14:32:52;;;;;;;2.22;0.90;;;;;;;8.68;100.00;98600.03;15305927;19;20078;-85
2023/01/05 14:38:24;;;;;;;2.10;0.90;;;;;;;8.43;100.00;98620.22;15297922;19;20022;-83
2023/01/05 14:43:51;;;;;;;4.43;1.20;;;;;;;8.26;100.00;98645.94;15288988;19;20018;-82
2023/01/05 14:49:32;;;;;;;3.55;1.30;;;;;;;8.14;100.00;98667.56;15284006;19;20020;-84
2023/01/05 14:55:26;;;;;;;4.27;1.40;;;;;;;8.02;100.00;98682.09;15286902;19;20014;-82
2023/01/05 15:01:03;;;;;;;3.13;1.40;;;;;;;7.95;100.00;98697.06;15297467;19;20055;-83
2023/01/05 15:06:34;;;;;;;4.43;1.50;;;;;;;7.87;100.00;98727.25;15325709;19;20007;-84
2023/01/05 15:12:29;;;;;;;6.23;1.77;;;;;;;7.80;100.00;98743.03;15286153;19;20006;-85
2023/01/05 15:18:11;;;;;;;4.47;1.70;;;;;;;7.72;100.00;98762.47;15281847;19;20015;-86
2023/01/05 15:23:57;;;;;;;5.77;2.20;;;;;;;7.66;100.00;98764.84;15284658;19;20010;-85
2023/01/05 15:29:47;;;;;;;7.40;2.40;;;;;;;7.59;100.00;98791.34;15292218;19;20721;-87
2023/01/05 15:35:19;;;;;;;8.63;2.42;;;;;;;7.56;100.00;98800.50;15307083;19;20002;-82
2023/01/05 15:40:44;;;;;;;7.78;2.50;;;;;;;7.53;100.00;98816.84;15331061;19;20014;-87
2023/01/05 15:46:09;;;;;;;7.32;2.40;;;;;;;7.52;100.00;98822.34;15306801;19;20016;-86
2023/01/05 15:51:43;;;;;;;8.75;3.03;;;;;;;7.54;100.00;98831.13;15295722;19;20348;-85
2023/01/05 15:57:21;;;;;;;6.32;2.58;;;;;;;7.56;100.00;98832.69;15296307;19;20015;-85
2023/01/05 16:02:47;;;;;;;7.50;2.80;;;;;;;7.51;100.00;98842.97;15302246;19;20029;-87
2023/01/05 16:08:18;;;;;;;7.90;2.67;;;;;;;7.54;100.00;98842.69;15313384;19;20482;-85
2023/01/05 16:13:46;;;;;;;9.32;3.00;;;;;;;7.53;100.00;98846.34;15343152;19;20018;-86
2023/01/05 16:19:21;;;;;;;9.52;3.00;;;;;;;7.51;100.00;98850.16;15304673;19;20011;-86
2023/01/05 16:24:56;;;;;;;8.18;3.00;;;;;;;7.48;100.00;98856.63;15293361;19;20022;-88
2023/01/05 16:30:31;;;;;;;9.05;3.15;;;;;;;7.47;100.00;98883.56;15297653;19;20470;-86
2023/01/05 16:36:00;;;;;;;9.75;3.42;;;;;;;7.44;100.00;98873.13;15303237;19;20118;-88
2023/01/05 16:42:30;;;;;;;8.90;3.40;;;;;;;7.42;100.00;98888.47;15302703;19;20010;-86
2023/01/05 16:47:41;;;;;;;9.70;3.90;;;;;;;7.39;100.00;98890.44;15298734;19;20745;-87
2023/01/05 16:53:12;;;;;;;9.05;4.00;;;;;;;7.36;100.00;98896.03;15301981;19;20080;-90
2023/01/05 16:58:46;;;;;;;10.60;4.50;;;;;;;7.35;100.00;98902.38;15310117;19;20019;-90
2023/01/05 17:04:18;;;;;;;11.57;4.60;;;;;;;7.33;100.00;98900.81;15311499;19;20013;-90
2023/01/05 17:09:45;;;;;;;11.45;4.50;;;;;;;7.29;100.00;98905.59;15321200;19;20021;-89
2023/01/05 17:21:36;;;;;;;10.13;4.55;;;;;;;7.24;100.00;98908.66;15273394;19;20106;-61
2023/01/05 17:27:01;;;;;;;15.07;5.10;;;;;;;7.21;100.00;98908.06;15280097;19;20098;-61
2023/01/05 17:32:27;;;;;;;12.20;4.72;;;;;;;7.16;100.00;98907.59;15285685;19;20055;-62
2023/01/05 17:37:55;;;;;;;10.40;3.95;;;;;;;7.16;100.00;98920.97;15273372;19;20014;-61
2023/01/05 17:43:20;;;;;;;9.88;4.00;;;;;;;7.16;100.00;98912.94;15278084;19;20017;-61
2023/01/05 17:48:45;;;;;;;10.10;4.15;;;;;;;7.16;100.00;98911.13;15283384;19;20027;-60
2023/01/05 17:54:12;;;;;;;8.88;4.00;;;;;;;7.21;100.00;98900.84;15283236;19;20018;-61
2023/01/05 17:59:38;;;;;;;10.20;3.25;;;;;;;7.23;100.00;98900.75;15278022;19;20090;-62
2023/01/05 18:05:03;;;;;;;13.90;5.60;;;;;;;7.30;100.00;98895.69;15279395;19;20073;-62
2023/01/05 18:10:30;;;;;;;9.25;3.10;;;;;;;7.30;100.00;98880.47;15276038;19;20602;-59
2023/01/05 18:15:56;;;;;;;10.32;3.00;;;;;;;7.24;100.00;98864.91;15284179;19;20014;-60
2023/01/05 18:21:28;;;;;;;11.57;3.00;;;;;;;7.21;100.00;98860.66;15279845;19;20018;-61
2023/01/05 18:26:55;;;;;;;11.27;3.30;;;;;;;7.16;100.00;98868.25;15282060;19;20025;-62
2023/01/05 18:32:21;;;;;;;10.23;3.40;;;;;;;7.18;100.00;98870.78;15277307;19;20569;-59
2023/01/05 18:37:47;;;;;;;7.70;2.75;;;;;;;7.27;100.00;98874.53;15277450;19;20414;-62
2023/01/05 18:43:34;;;;;;;9.70;3.17;;;;;;;7.28;100.00;98863.69;15280104;19;20025;-62
2023/01/05 18:48:59;;;;;;;10.45;3.25;;;;;;;7.25;100.00;98856.75;15279112;19;20018;-62
2023/01/05 18:54:23;;;;;;;9.75;3.35;;;;;;;7.32;100.00;98853.53;15279159;19;20053;-61
2023/01/05 18:59:51;;;;;;;11.07;3.15;;;;;;;7.27;100.00;98848.56;15276083;19;20017;-57
2023/01/05 19:05:17;;;;;;;9.98;3.35;;;;;;;7.16;100.00;98854.84;15268743;19;20019;-61
2023/01/05 19:10:42;;;;;;;10.48;3.30;;;;;;;7.07;100.00;98853.78;15269879;19;20037;-65
2023/01/05 19:16:13;;;;;;;10.68;3.78;;;;;;;7.05;100.00;98853.06;15277117;19;20018;-61
2023/01/05 19:21:47;;;;;;;8.90;3.47;;;;;;;6.98;100.00;98853.69;15272246;19;20078;-64
2023/01/05 19:27:13;;;;;;;10.23;3.63;;;;;;;6.95;100.00;98865.53;15278678;19;20350;-61
2023/01/05 19:32:40;;;;;;;12.25;3.78;;;;;;;6.98;100.00;98865.28;15279138;19;20492;-60
2023/01/05 19:38:05;;;;;;;10.90;3.65;;;;;;;7.00;100.00;98868.66;15277818;19;20074;-62
2023/01/05 19:43:29;;;;;;;10.18;3.35;;;;;;;7.02;100.00;98865.88;15283176;19;20503;-62
2023/01/05 19:48:57;;;;;;;11.02;3.33;;;;;;;7.03;100.00;98868.41;15291359;19;20019;-61
2023/01/05 19:54:24;;;;;;;9.02;3.22;;;;;;;7.04;100.00;98875.47;15292868;19;20077;-62
2023/01/05 19:59:49;;;;;;;12.20;3.97;;;;;;;7.03;100.00;98876.44;15288758;19;20478;-63
2023/01/05 20:05:24;;;;;;;12.07;4.32;;;;;;;7.03;100.00;98883.66;15288021;19;20006;-61
2023/01/05 20:10:49;;;;;;;12.18;4.13;;;;;;;7.01;100.00;98886.44;15281105;19;20050;-59
2023/01/05 20:16:17;;;;;;;11.13;3.97;;;;;;;6.99;100.00;98885.75;15284028;19;20518;-62
2023/01/05 20:21:51;;;;;;;12.43;4.30;;;;;;;6.97;100.00;98890.38;15286592;19;20526;-62
2023/01/05 20:27:17;;;;;;;11.55;4.30;;;;;;;6.96;100.00;98883.31;15291630;19;20097;-61
2023/01/05 20:32:41;;;;;;;10.80;3.83;;;;;;;6.96;100.00;98882.44;15290331;19;20010;-59
2023/01/05 20:38:09;;;;;;;8.32;3.97;;;;;;;6.92;100.00;98887.19;15289421;19;20047;-61
2023/01/05 20:43:33;;;;;;;10.65;3.00;;;;;;;6.92;100.00;98882.72;15280230;19;20026;-63
2023/01/05 20:48:59;;;;;;;6.50;2.20;;;;;;;7.10;100.00;98847.31;15275970;19;20017;-63
2023/01/05 20:54:26;;;;;;;8.50;2.58;;;;;;;7.27;100.00;98845.91;15289390;19;20006;-63
2023/01/05 20:59:52;;;;;;;9.48;2.55;;;;;;;7.28;100.00;98855.63;15283623;19;20031;-64
2023/01/05 21:05:17;;;;;;;9.55;2.60;;;;;;;7.40;100.00;98854.59;15280888;19;20356;-64
2023/01/05 21:10:45;;;;;;;10.93;2.50;;;;;;;7.37;100.00;98852.16;15282850;19;20622;-63
2023/01/05 21:16:13;;;;;;;6.43;2.25;;;;;;;7.35;100.00;98858.66;15281314;19;20017;-62
2023/01/05 21:21:45;;;;;;;9.57;2.63;;;;;;;7.25;100.00;98862.13;15275395;19;20010;-64
2023/01/05 21:27:13;;;;;;;8.23;2.45;;;;;;;7.13;100.00;98855.09;15267028;19;20027;-63
2023/01/05 21:32:38;;;;;;;8.32;2.53;;;;;;;7.12;100.00;98850.72;15287259;19;20014;-63
2023/01/05 21:38:03;;;;;;;10.05;2.92;;;;;;;7.02;100.00;98855.16;15286419;19;20015;-63
2023/01/05 21:43:31;;;;;;;9.52;2.70;;;;;;;6.99;100.00;98853.59;15281974;19;20014;-63
2023/01/05 21:48:56;;;;;;;6.93;2.28;;;;;;;6.94;100.00;98864.66;15276828;19;20021;-63
2023/01/05 22:00:01;;;;;;;8.85;2.47;;;;;;;6.93;100.00;98859.44;15281234;19;20039;-61
2023/01/05 22:05:25;;;;;;;9.13;2.80;;;;;;;6.89;100.00;98853.50;15280465;19;20936;-62
2023/01/05 22:10:55;;;;;;;10.65;3.00;;;;;;;6.86;100.00;98866.28;15279327;19;20733;-59
2023/01/05 22:16:22;;;;;;;11.15;2.80;;;;;;;6.84;100.00;98869.09;15283213;19;20007;-65
2023/01/05 22:21:53;;;;;;;11.27;2.97;;;;;;;6.85;100.00;98875.31;15276725;19;20039;-64
2023/01/05 22:27:18;;;;;;;10.30;2.90;;;;;;;6.82;100.00;98870.19;15271605;19;20377;-64
2023/01/05 22:32:39;;;;;;;10.35;2.55;;;;;;;6.79;100.00;98872.13;15281672;19;20335;-63
2023/01/05 22:38:04;;;;;;;9.43;2.80;;;;;;;6.83;100.00;98871.91;15278670;19;20559;-61
2023/01/05 22:43:29;;;;;;;13.60;3.25;;;;;;;6.84;100.00;98862.88;15279573;19;20015;-63
2023/01/05 22:49:01;;;;;;;10.93;3.03;;;;;;;6.85;100.00;98876.13;15276734;19;20358;-61
2023/01/05 22:54:26;;;;;;;9.73;3.10;;;;;;;6.88;100.00;98859.81;15282344;19;20466;-59
2023/01/05 22:59:50;;;;;;;12.07;3.17;;;;;;;6.93;100.00;98854.09;15269788;19;20021;-63
2023/01/05 23:05:19;;;;;;;9.38;2.80;;;;;;;6.96;100.00;98850.28;15277924;19;20010;-64
2023/01/05 23:10:43;;;;;;;8.02;2.67;;;;;;;6.96;100.00;98840.44;15273498;19;20025;-64
2023/01/05 23:16:09;;;;;;;11.05;2.95;;;;;;;6.96;100.00;98840.44;15278833;19;20365;-63
2023/01/05 23:21:36;;;;;;;7.75;2.70;;;;;;;6.95;100.00;98844.09;15267360;19;20110;-63
2023/01/05 23:27:01;;;;;;;11.30;3.20;;;;;;;6.93;100.00;98843.38;15276180;19;20542;-63
2023/01/05 23:32:25;;;;;;;10.65;3.10;;;;;;;6.92;100.00;98837.19;15271333;19;20026;-64
2023/01/05 23:37:53;;;;;;;8.52;2.85;;;;;;;6.90;100.00;98824.88;15275997;19;20015;-63
2023/01/05 23:43:19;;;;;;;9.65;2.83;;;;;;;6.90;100.00;98830.22;15275651;19;20010;-63
2023/01/05 23:48:45;;;;;;;9.55;3.00;;;;;;;6.85;100.00;98821.75;15273483;19;20018;-63
2023/01/05 23:54:12;;;;;;;8.77;2.80;;;;;;;6.84;100.00;98810.16;15272324;19;20048;-62
2023/01/05 23:59:38;;;;;;;8.13;2.67;;;;;;;6.82;100.00;98805.91;15274231;19;20011;-64
